createdAt,value
2017-09-02T00:00:18.913Z,79.91
2017-09-02T00:02:48.442Z,82.45
2017-09-02T00:05:18.238Z,83.72
2017-09-02T00:07:47.969Z,84.04
2017-09-02T00:10:17.594Z,84.22
2017-09-02T00:12:47.320Z,82.98
2017-09-02T00:15:17.099Z,83.47
2017-09-02T00:17:46.877Z,83.77
2017-09-02T00:20:16.660Z,84.10
2017-09-02T00:22:46.445Z,83.29
2017-09-02T00:25:16.210Z,82.58
2017-09-02T00:27:45.929Z,82.19
2017-09-02T00:30:15.775Z,82.01
2017-09-02T00:32:45.533Z,80.72
2017-09-02T00:35:15.287Z,79.44
2017-09-02T00:37:45.026Z,78.93
2017-09-02T00:40:14.822Z,79.70
2017-09-02T00:42:44.434Z,80.26
2017-09-02T00:45:14.754Z,80.25
2017-09-02T00:47:44.481Z,80.21
2017-09-02T00:50:14.250Z,80.63
2017-09-02T00:52:44.764Z,79.07
2017-09-02T00:55:14.601Z,76.54
2017-09-02T00:57:44.339Z,76.52
2017-09-02T01:00:14.046Z,77.12
2017-09-02T01:02:43.662Z,76.83
2017-09-02T01:05:13.488Z,78.00
2017-09-02T01:07:43.892Z,79.08
2017-09-02T01:10:13.682Z,80.00
2017-09-02T01:12:43.425Z,79.63
2017-09-02T01:15:13.256Z,78.86
2017-09-02T01:17:43.054Z,78.81
2017-09-02T01:20:12.842Z,78.24
2017-09-02T01:22:42.584Z,77.38
2017-09-02T01:25:12.387Z,77.40
2017-09-02T01:27:42.122Z,76.72
2017-09-02T01:30:17.463Z,77.26
2017-09-02T01:32:47.201Z,77.15
2017-09-02T01:35:16.986Z,77.40
2017-09-02T01:37:46.713Z,77.20
2017-09-02T01:40:16.503Z,77.05
2017-09-02T01:42:46.228Z,78.82
2017-09-02T01:45:16.026Z,81.86
2017-09-02T01:47:45.900Z,82.40
2017-09-02T01:50:15.718Z,83.14
2017-09-02T01:52:45.440Z,83.80
2017-09-02T01:55:15.239Z,84.39
2017-09-02T01:57:44.977Z,84.24
2017-09-02T02:00:14.763Z,84.64
2017-09-02T02:02:44.318Z,84.96
2017-09-02T02:05:14.090Z,85.31
2017-09-02T02:07:43.812Z,85.50
2017-09-02T02:10:13.643Z,85.07
2017-09-02T02:12:43.225Z,84.13
2017-09-02T02:15:13.024Z,84.35
2017-09-02T02:17:42.749Z,84.65
2017-09-02T02:20:12.529Z,85.03
2017-09-02T02:22:42.267Z,84.16
2017-09-02T02:25:12.061Z,84.73
2017-09-02T02:27:41.794Z,83.75
2017-09-02T02:30:11.557Z,84.18
2017-09-02T02:32:41.294Z,84.34
2017-09-02T02:35:11.057Z,83.46
2017-09-02T02:37:40.777Z,82.47
2017-09-02T02:40:10.556Z,82.43
2017-09-02T02:42:40.268Z,82.53
2017-09-02T02:45:09.854Z,82.55
2017-09-02T02:47:39.584Z,82.91
2017-09-02T02:50:09.350Z,81.91
2017-09-02T02:52:39.079Z,81.46
2017-09-02T02:55:08.829Z,81.84
2017-09-02T02:57:38.705Z,81.55
2017-09-02T03:00:08.484Z,81.00
2017-09-02T03:02:38.049Z,81.17
2017-09-02T03:05:07.831Z,81.16
2017-09-02T03:07:37.668Z,81.84
2017-09-02T03:10:07.262Z,82.62
2017-09-02T03:12:37.093Z,82.18
2017-09-02T03:15:06.843Z,81.24
2017-09-02T03:17:36.578Z,80.12
2017-09-02T03:20:06.431Z,80.17
2017-09-02T03:22:36.167Z,79.91
2017-09-02T03:25:05.954Z,79.69
2017-09-02T03:27:35.698Z,80.03
2017-09-02T03:30:06.351Z,79.83
2017-09-02T03:32:36.102Z,80.35
2017-09-02T03:35:05.848Z,81.24
2017-09-02T03:37:35.587Z,81.71
2017-09-02T03:40:05.416Z,81.43
2017-09-02T03:42:35.202Z,80.58
2017-09-02T03:45:04.963Z,80.15
2017-09-02T03:47:34.722Z,79.85
2017-09-02T03:50:04.507Z,79.39
2017-09-02T03:52:34.327Z,79.68
2017-09-02T03:55:04.214Z,79.68
2017-09-02T03:57:33.934Z,80.03
2017-09-02T04:00:03.538Z,79.76
2017-09-02T04:02:33.119Z,79.55
2017-09-02T04:05:02.889Z,79.18
2017-09-02T04:07:32.616Z,79.88
2017-09-02T04:10:02.417Z,79.32
2017-09-02T04:12:32.149Z,79.92
2017-09-02T04:15:01.918Z,79.38
2017-09-02T04:17:31.643Z,79.87
2017-09-02T04:20:01.414Z,79.98
2017-09-02T04:22:31.137Z,79.54
2017-09-02T04:25:00.872Z,79.16
2017-09-02T04:27:30.619Z,79.40
2017-09-02T04:30:00.368Z,78.86
2017-09-02T04:32:30.096Z,79.17
2017-09-02T04:34:59.845Z,78.88
2017-09-02T04:37:29.582Z,78.59
2017-09-02T04:39:59.329Z,78.82
2017-09-02T04:42:29.056Z,78.79
2017-09-02T04:44:58.785Z,79.87
2017-09-02T04:47:28.519Z,80.29
2017-09-02T04:49:58.505Z,80.19
2017-09-02T04:52:28.248Z,80.22
2017-09-02T04:54:58.068Z,81.23
2017-09-02T04:57:27.803Z,81.86
2017-09-02T04:59:57.536Z,82.33
2017-09-02T05:02:27.269Z,82.60
2017-09-02T05:04:57.000Z,82.71
2017-09-02T05:07:26.746Z,82.62
2017-09-02T05:09:56.491Z,82.25
2017-09-02T05:12:26.211Z,82.35
2017-09-02T05:14:56.177Z,81.98
2017-09-02T05:17:25.891Z,81.38
2017-09-02T05:19:55.628Z,80.73
2017-09-02T05:22:25.356Z,80.92
2017-09-02T05:24:55.097Z,81.85
2017-09-02T05:27:24.657Z,80.86
2017-09-02T05:29:54.385Z,80.86
2017-09-02T05:32:24.151Z,80.66
2017-09-02T05:34:53.708Z,80.50
2017-09-02T05:37:23.680Z,80.61
2017-09-02T05:39:53.418Z,81.51
2017-09-02T05:42:23.181Z,81.08
2017-09-02T05:44:52.713Z,80.21
2017-09-02T05:47:22.462Z,80.26
2017-09-02T05:49:52.121Z,80.46
2017-09-02T05:52:21.850Z,80.50
2017-09-02T05:54:51.622Z,79.00
2017-09-02T05:57:21.361Z,78.60
2017-09-02T05:59:51.173Z,78.18
2017-09-02T06:02:20.913Z,78.29
2017-09-02T06:04:50.797Z,77.57
2017-09-02T06:07:20.541Z,77.42
2017-09-02T06:09:50.265Z,77.65
2017-09-02T06:12:19.721Z,77.56
2017-09-02T06:14:49.461Z,77.09
2017-09-02T06:17:19.213Z,76.87
2017-09-02T06:19:48.961Z,76.64
2017-09-02T06:22:18.409Z,75.21
2017-09-02T06:24:47.885Z,75.86
2017-09-02T06:27:17.368Z,75.34
2017-09-02T06:29:46.798Z,75.21
2017-09-02T06:32:16.253Z,74.76
2017-09-02T06:34:45.808Z,74.63
2017-09-02T06:37:15.234Z,74.99
2017-09-02T06:39:44.695Z,74.47
2017-09-02T06:42:14.172Z,74.78
2017-09-02T06:44:44.124Z,74.55
2017-09-02T06:47:13.581Z,75.39
2017-09-02T06:49:43.092Z,74.21
2017-09-02T06:52:12.551Z,73.62
2017-09-02T06:54:42.000Z,73.64
2017-09-02T06:57:11.450Z,73.57
2017-09-02T06:59:40.902Z,73.22
2017-09-02T07:02:10.366Z,71.87
2017-09-02T07:04:39.808Z,71.38
2017-09-02T07:07:09.249Z,71.73
2017-09-02T07:09:38.704Z,71.50
2017-09-02T07:12:08.147Z,70.45
2017-09-02T07:14:37.615Z,70.39
2017-09-02T07:17:07.044Z,68.85
2017-09-02T07:19:36.332Z,69.11
2017-09-02T07:22:05.778Z,70.01
2017-09-02T07:24:35.234Z,70.00
2017-09-02T07:27:04.701Z,69.89
2017-09-02T07:29:34.136Z,70.64
2017-09-02T07:32:03.582Z,69.22
2017-09-02T07:34:32.824Z,69.55
2017-09-02T07:37:02.292Z,69.68
2017-09-02T07:39:31.981Z,70.74
2017-09-02T07:42:01.436Z,70.13
2017-09-02T07:44:30.869Z,69.66
2017-09-02T07:47:00.321Z,69.74
2017-09-02T07:49:29.752Z,70.21
2017-09-02T07:51:59.188Z,70.50
2017-09-02T07:54:28.641Z,70.50
2017-09-02T07:56:58.102Z,70.45
2017-09-02T07:59:27.536Z,70.38
2017-09-02T08:01:56.785Z,70.67
2017-09-02T08:04:26.040Z,70.93
2017-09-02T08:06:55.315Z,70.80
2017-09-02T08:09:24.581Z,70.06
2017-09-02T08:11:53.835Z,69.73
2017-09-02T08:14:23.316Z,69.92
2017-09-02T08:16:52.775Z,69.55
2017-09-02T08:19:22.061Z,69.83
2017-09-02T08:21:51.537Z,69.29
2017-09-02T08:24:20.893Z,69.33
2017-09-02T08:26:50.336Z,68.76
2017-09-02T08:29:19.845Z,68.62
2017-09-02T08:31:49.377Z,68.05
2017-09-02T08:34:18.872Z,67.31
2017-09-02T08:36:48.391Z,67.83
2017-09-02T08:39:17.846Z,67.27
2017-09-02T08:41:47.309Z,67.79
2017-09-02T08:44:16.755Z,67.79
2017-09-02T08:46:46.206Z,67.07
2017-09-02T08:49:15.876Z,67.07
2017-09-02T08:51:45.500Z,65.70
2017-09-02T08:54:15.023Z,66.35
2017-09-02T08:56:44.585Z,65.79
2017-09-02T08:59:14.105Z,65.81
2017-09-02T09:01:43.566Z,65.54
2017-09-02T09:04:12.997Z,67.24
2017-09-02T09:06:42.439Z,67.80
2017-09-02T09:09:11.969Z,67.30
2017-09-02T09:11:41.410Z,66.63
2017-09-02T09:14:10.734Z,66.50
2017-09-02T09:16:40.193Z,66.91
2017-09-02T09:19:09.658Z,67.03
2017-09-02T09:21:39.094Z,66.71
2017-09-02T09:24:08.552Z,66.73
2017-09-02T09:26:38.011Z,68.04
2017-09-02T09:29:07.449Z,67.53
2017-09-02T09:31:36.901Z,67.25
2017-09-02T09:34:06.339Z,67.62
2017-09-02T09:36:35.781Z,67.29
2017-09-02T09:39:04.638Z,67.67
2017-09-02T09:41:34.068Z,67.80
2017-09-02T09:44:03.522Z,66.91
2017-09-02T09:46:32.966Z,67.39
2017-09-02T09:49:02.237Z,67.18
2017-09-02T09:51:31.668Z,68.11
2017-09-02T09:54:01.123Z,68.21
2017-09-02T09:56:30.583Z,67.68
2017-09-02T09:59:00.024Z,68.43
2017-09-02T10:01:29.465Z,67.72
2017-09-02T10:03:58.933Z,67.31
2017-09-02T10:06:28.368Z,66.80
2017-09-02T10:08:57.805Z,64.87
2017-09-02T10:11:27.294Z,66.33
2017-09-02T10:13:56.729Z,65.90
2017-09-02T10:16:26.048Z,64.82
2017-09-02T10:18:55.479Z,65.33
2017-09-02T10:21:24.915Z,64.58
2017-09-02T10:23:54.372Z,65.00
2017-09-02T10:26:23.834Z,64.99
2017-09-02T10:28:53.298Z,65.72
2017-09-02T10:31:22.771Z,65.12
2017-09-02T10:33:52.088Z,63.86
2017-09-02T10:36:21.528Z,64.58
2017-09-02T10:38:50.977Z,64.57
2017-09-02T10:41:20.431Z,63.36
2017-09-02T10:43:49.886Z,64.17
2017-09-02T10:46:19.329Z,64.72
2017-09-02T10:48:48.777Z,62.43
2017-09-02T10:51:18.225Z,63.88
2017-09-02T10:53:47.709Z,62.92
2017-09-02T10:56:17.140Z,62.66
2017-09-02T10:58:46.575Z,63.62
2017-09-02T11:01:16.025Z,62.60
2017-09-02T11:03:45.481Z,63.31
2017-09-02T11:06:14.932Z,62.26
2017-09-02T11:08:44.371Z,63.27
2017-09-02T11:11:13.818Z,61.19
2017-09-02T11:13:43.544Z,61.23
2017-09-02T11:16:13.008Z,61.22
2017-09-02T11:18:42.454Z,60.49
2017-09-02T11:21:12.984Z,60.79
2017-09-02T11:23:42.451Z,60.41
2017-09-02T11:26:11.929Z,59.02
2017-09-02T11:28:41.372Z,59.21
2017-09-02T11:31:10.900Z,60.63
2017-09-02T11:33:40.318Z,60.72
2017-09-02T11:36:09.762Z,60.38
2017-09-02T11:38:39.196Z,60.83
2017-09-02T11:41:08.664Z,60.80
2017-09-02T11:43:38.109Z,61.29
2017-09-02T11:46:07.563Z,61.20
2017-09-02T11:48:36.999Z,61.37
2017-09-02T11:51:06.448Z,61.79
2017-09-02T11:53:35.888Z,60.98
2017-09-02T11:56:05.321Z,61.99
2017-09-02T11:58:34.766Z,62.94
2017-09-02T12:01:04.209Z,62.91
2017-09-02T12:03:33.665Z,62.59
2017-09-02T12:06:03.097Z,61.53
2017-09-02T12:08:32.585Z,62.56
2017-09-02T12:11:02.206Z,61.43
2017-09-02T12:13:31.673Z,61.39
2017-09-02T12:16:00.902Z,61.74
2017-09-02T12:18:30.172Z,61.99
2017-09-02T12:20:59.620Z,61.14
2017-09-02T12:23:29.078Z,61.95
2017-09-02T12:25:58.544Z,61.62
2017-09-02T12:28:27.791Z,61.32
2017-09-02T12:30:57.027Z,61.92
2017-09-02T12:33:26.269Z,61.67
2017-09-02T12:35:55.534Z,63.33
2017-09-02T12:38:24.791Z,62.66
2017-09-02T12:40:54.048Z,62.91
2017-09-02T12:43:24.892Z,62.16
2017-09-02T12:45:54.128Z,62.60
2017-09-02T12:48:23.380Z,64.13
2017-09-02T12:50:52.620Z,61.42
2017-09-02T12:53:21.925Z,62.51
2017-09-02T12:55:51.148Z,62.80
2017-09-02T12:58:20.409Z,63.58
2017-09-02T13:00:49.644Z,64.36
2017-09-02T13:03:18.927Z,63.55
2017-09-02T13:05:47.814Z,63.38
2017-09-02T13:08:17.062Z,63.60
2017-09-02T13:10:46.351Z,65.31
2017-09-02T13:13:15.623Z,65.58
2017-09-02T13:15:44.888Z,64.90
2017-09-02T13:18:14.132Z,64.70
2017-09-02T13:20:43.382Z,63.79
2017-09-02T13:23:12.678Z,64.43
2017-09-02T13:25:41.921Z,65.27
2017-09-02T13:28:11.151Z,66.77
2017-09-02T13:30:40.394Z,66.78
2017-09-02T13:33:09.637Z,67.08
2017-09-02T13:35:38.914Z,66.02
2017-09-02T13:38:08.268Z,63.87
2017-09-02T13:40:37.524Z,63.95
2017-09-02T13:43:06.822Z,65.95
2017-09-02T13:45:36.318Z,65.98
2017-09-02T13:48:05.577Z,65.22
2017-09-02T13:50:34.821Z,65.33
2017-09-02T13:53:04.057Z,64.31
2017-09-02T13:55:33.319Z,65.69
2017-09-02T13:58:02.392Z,66.20
2017-09-02T14:00:31.654Z,65.66
2017-09-02T14:03:00.896Z,65.13
2017-09-02T14:05:30.140Z,66.15
2017-09-02T14:07:59.389Z,65.71
2017-09-02T14:10:28.458Z,65.71
2017-09-02T14:12:57.512Z,66.33
2017-09-02T14:15:26.560Z,65.38
2017-09-02T14:17:56.113Z,66.05
2017-09-02T14:20:25.363Z,66.51
2017-09-02T14:22:54.584Z,64.67
2017-09-02T14:25:23.893Z,65.28
2017-09-02T14:27:53.680Z,65.44
2017-09-02T14:30:22.998Z,65.53
2017-09-02T14:32:52.242Z,64.99
2017-09-02T14:35:21.618Z,64.78
2017-09-02T14:37:50.853Z,66.25
2017-09-02T14:40:20.144Z,65.75
2017-09-02T14:42:49.379Z,65.77
2017-09-02T14:45:18.677Z,67.03
2017-09-02T14:47:47.910Z,66.00
2017-09-02T14:50:17.209Z,66.01
2017-09-02T14:52:46.458Z,65.30
2017-09-02T14:55:15.764Z,65.29
2017-09-02T14:57:45.000Z,65.46
2017-09-02T15:00:14.363Z,66.29
2017-09-02T15:02:43.420Z,66.97
2017-09-02T15:05:12.718Z,67.62
2017-09-02T15:07:42.030Z,67.25
2017-09-02T15:10:11.298Z,67.54
2017-09-02T15:12:40.553Z,68.34
2017-09-02T15:15:09.823Z,68.58
2017-09-02T15:17:39.082Z,68.94
2017-09-02T15:20:08.363Z,69.55
2017-09-02T15:22:37.623Z,69.85
2017-09-02T15:25:06.941Z,70.21
2017-09-02T15:27:36.206Z,69.64
2017-09-02T15:30:05.484Z,69.47
2017-09-02T15:32:34.721Z,69.82
2017-09-02T15:35:04.087Z,69.97
2017-09-02T15:37:33.329Z,70.03
2017-09-02T15:40:02.644Z,70.07
2017-09-02T15:42:31.879Z,68.67
2017-09-02T15:45:01.156Z,70.31
2017-09-02T15:47:30.392Z,70.54
2017-09-02T15:49:59.634Z,70.77
2017-09-02T15:52:28.898Z,70.83
2017-09-02T15:54:58.125Z,71.29
2017-09-02T15:57:27.400Z,71.21
2017-09-02T15:59:56.640Z,71.76
2017-09-02T16:02:25.894Z,72.47
2017-09-02T16:04:55.148Z,73.59
2017-09-02T16:07:25.244Z,74.28
2017-09-02T16:09:54.575Z,75.65
2017-09-02T16:12:23.828Z,76.68
2017-09-02T16:14:53.070Z,76.96
2017-09-02T16:17:22.334Z,77.73
2017-09-02T16:19:51.566Z,78.39
2017-09-02T16:22:20.820Z,79.01
2017-09-02T16:24:50.064Z,79.42
2017-09-02T16:27:19.321Z,78.99
2017-09-02T16:29:48.561Z,79.34
2017-09-02T16:32:17.794Z,79.83
2017-09-02T16:34:47.056Z,80.12
2017-09-02T16:37:16.307Z,80.83
2017-09-02T16:39:45.540Z,81.19
2017-09-02T16:42:14.858Z,81.72
2017-09-02T16:44:44.100Z,81.92
2017-09-02T16:47:13.137Z,82.24
2017-09-02T16:49:42.192Z,82.58
2017-09-02T16:52:11.248Z,81.98
2017-09-02T16:54:40.325Z,82.18
2017-09-02T16:57:09.614Z,82.12
2017-09-02T16:59:38.684Z,80.21
2017-09-02T17:02:08.042Z,80.55
2017-09-02T17:04:37.090Z,81.51
2017-09-02T17:07:06.142Z,82.20
2017-09-02T17:09:35.209Z,82.85
2017-09-02T17:12:04.280Z,83.61
2017-09-02T17:14:33.659Z,84.25
2017-09-02T17:17:02.809Z,85.28
2017-09-02T17:19:32.158Z,85.86
2017-09-02T17:22:01.521Z,86.00
2017-09-02T17:24:31.917Z,86.60
2017-09-02T17:27:01.278Z,86.84
2017-09-02T17:29:30.712Z,87.15
2017-09-02T17:32:00.032Z,87.10
2017-09-02T17:34:29.566Z,86.93
2017-09-02T17:36:59.098Z,87.26
2017-09-02T17:39:28.621Z,87.08
2017-09-02T17:41:58.148Z,87.30
2017-09-02T17:44:27.799Z,88.03
2017-09-02T17:46:57.330Z,88.26
2017-09-02T17:49:26.676Z,88.56
2017-09-02T17:51:56.210Z,88.48
2017-09-02T17:54:25.740Z,88.37
2017-09-02T17:56:54.943Z,87.67
2017-09-02T17:59:24.481Z,86.00
2017-09-02T18:01:54.685Z,85.54
2017-09-02T18:04:23.987Z,85.69
2017-09-02T18:06:53.540Z,86.05
2017-09-02T18:09:23.121Z,87.07
2017-09-02T18:11:52.629Z,88.15
2017-09-02T18:14:22.164Z,89.26
2017-09-02T18:16:51.694Z,89.08
2017-09-02T18:19:21.225Z,90.26
2017-09-02T18:21:50.796Z,89.42
2017-09-02T18:24:20.365Z,89.00
2017-09-02T18:26:49.889Z,88.71
2017-09-02T18:29:19.472Z,88.80
2017-09-02T18:31:49.008Z,89.24
2017-09-02T18:34:18.543Z,89.99
2017-09-02T18:36:48.068Z,91.04
2017-09-02T18:39:17.611Z,91.42
2017-09-02T18:41:47.145Z,91.94
2017-09-02T18:44:16.663Z,92.41
2017-09-02T18:46:46.194Z,92.82
2017-09-02T18:49:15.550Z,92.99
2017-09-02T18:51:45.084Z,93.32
2017-09-02T18:54:14.413Z,93.49
2017-09-02T18:56:43.968Z,93.50
2017-09-02T18:59:13.512Z,93.30
2017-09-02T19:01:43.051Z,93.28
2017-09-02T19:04:12.667Z,93.34
2017-09-02T19:06:42.198Z,93.45
2017-09-02T19:09:11.768Z,93.48
2017-09-02T19:11:41.290Z,93.60
2017-09-02T19:14:10.634Z,93.86
2017-09-02T19:16:40.156Z,93.81
2017-09-02T19:19:09.697Z,93.79
2017-09-02T19:21:39.305Z,93.87
2017-09-02T19:24:08.845Z,93.95
2017-09-02T19:26:38.388Z,94.04
2017-09-02T19:29:08.004Z,94.07
2017-09-02T19:31:37.613Z,94.15
2017-09-02T19:34:07.153Z,94.03
2017-09-02T19:36:37.647Z,94.32
2017-09-02T19:39:07.189Z,94.58
2017-09-02T19:41:36.738Z,94.68
2017-09-02T19:44:06.525Z,94.75
2017-09-02T19:46:36.055Z,94.88
2017-09-02T19:49:05.620Z,94.97
2017-09-02T19:51:35.156Z,94.92
2017-09-02T19:54:04.704Z,95.08
2017-09-02T19:56:34.238Z,95.06
2017-09-02T19:59:03.776Z,95.16
2017-09-02T20:01:33.349Z,95.15
2017-09-02T20:04:02.917Z,95.17
2017-09-02T20:06:32.697Z,95.20
2017-09-02T20:09:01.954Z,95.29
2017-09-02T20:11:31.305Z,95.34
2017-09-02T20:14:01.043Z,95.27
2017-09-02T20:16:30.937Z,95.26
2017-09-02T20:19:00.680Z,95.41
2017-09-02T20:21:30.443Z,95.28
2017-09-02T20:24:00.281Z,94.74
2017-09-02T20:26:30.195Z,94.63
2017-09-02T20:29:00.004Z,94.33
2017-09-02T20:31:29.768Z,94.28
2017-09-02T20:33:59.629Z,93.93
2017-09-02T20:36:29.528Z,93.96
2017-09-02T20:38:59.388Z,93.87
2017-09-02T20:41:29.112Z,94.04
2017-09-02T20:43:58.859Z,94.28
2017-09-02T20:46:28.600Z,94.11
2017-09-02T20:48:58.340Z,94.02
2017-09-02T20:51:28.228Z,93.61
2017-09-02T20:53:57.989Z,93.39
2017-09-02T20:56:27.765Z,93.63
2017-09-02T20:58:57.496Z,93.88
2017-09-02T21:01:27.256Z,94.24
2017-09-02T21:03:56.806Z,94.25
2017-09-02T21:06:26.541Z,94.27
2017-09-02T21:08:56.371Z,94.40
2017-09-02T21:11:26.116Z,94.71
2017-09-02T21:13:55.878Z,94.87
2017-09-02T21:16:25.648Z,94.77
2017-09-02T21:18:55.372Z,94.69
2017-09-02T21:21:25.093Z,94.77
2017-09-02T21:23:54.885Z,94.80
2017-09-02T21:26:24.635Z,94.89
2017-09-02T21:28:54.355Z,94.90
2017-09-02T21:31:24.088Z,94.82
2017-09-02T21:33:53.796Z,95.07
2017-09-02T21:36:23.566Z,95.20
2017-09-02T21:38:53.287Z,95.23
2017-09-02T21:41:23.074Z,95.33
2017-09-02T21:43:52.812Z,95.49
2017-09-02T21:46:22.563Z,95.59
2017-09-02T21:48:52.307Z,95.66
2017-09-02T21:51:22.065Z,95.71
2017-09-02T21:53:51.807Z,95.80
2017-09-02T21:56:21.544Z,95.81
2017-09-02T21:58:52.177Z,95.89
2017-09-02T22:01:21.905Z,95.92
2017-09-02T22:03:51.662Z,96.02
2017-09-02T22:06:21.380Z,96.11
2017-09-02T22:08:51.116Z,96.10
2017-09-02T22:11:20.856Z,96.12
2017-09-02T22:13:50.641Z,96.12
2017-09-02T22:16:20.401Z,96.00
2017-09-02T22:18:50.145Z,95.67
2017-09-02T22:21:19.877Z,95.03
2017-09-02T22:23:49.618Z,94.28
2017-09-02T22:26:19.357Z,94.27
2017-09-02T22:28:49.098Z,94.57
2017-09-02T22:31:18.862Z,94.73
2017-09-02T22:33:48.400Z,95.08
2017-09-02T22:36:18.233Z,95.19
2017-09-02T22:38:47.968Z,95.34
2017-09-02T22:41:17.712Z,95.42
2017-09-02T22:43:47.261Z,95.32
2017-09-02T22:46:16.986Z,95.20
2017-09-02T22:48:46.728Z,95.04
2017-09-02T22:51:16.461Z,94.48
2017-09-02T22:53:46.222Z,94.32
2017-09-02T22:56:15.927Z,94.60
2017-09-02T22:58:45.656Z,94.73
2017-09-02T23:01:15.392Z,95.00
2017-09-02T23:03:45.122Z,94.95
2017-09-02T23:06:14.844Z,94.63
2017-09-02T23:08:44.589Z,93.94
2017-09-02T23:11:14.320Z,93.65
2017-09-02T23:13:44.105Z,93.83
2017-09-02T23:16:13.847Z,93.89
2017-09-02T23:18:43.569Z,94.20
2017-09-02T23:21:14.255Z,93.92
2017-09-02T23:23:43.975Z,93.82
2017-09-02T23:26:13.730Z,93.84
2017-09-02T23:28:43.454Z,94.07
2017-09-02T23:31:13.197Z,94.36
2017-09-02T23:33:42.941Z,94.68
2017-09-02T23:36:12.665Z,94.92
2017-09-02T23:38:42.397Z,95.14
2017-09-02T23:41:12.135Z,95.17
2017-09-02T23:43:41.862Z,95.25
2017-09-02T23:46:11.658Z,95.42
2017-09-02T23:48:41.381Z,95.59
2017-09-02T23:51:11.116Z,95.68
2017-09-02T23:53:40.842Z,95.72
2017-09-02T23:56:10.592Z,95.75
2017-09-02T23:58:40.328Z,95.65
